sensor_id;sensor_type;location;lat;lon;timestamp;P1;durP1;ratioP1;P2;durP2;ratioP2
7501;SDS011;3792;47.740;7.606;2022-10-16T00:01:05;17.83;;;8.77;;
7501;SDS011;3792;47.740;7.606;2022-10-16T00:03:33;13.80;;;6.23;;
7501;SDS011;3792;47.740;7.606;2022-10-16T00:06:00;13.23;;;4.43;;
7501;SDS011;3792;47.740;7.606;2022-10-16T00:08:28;6.27;;;3.87;;
7501;SDS011;3792;47.740;7.606;2022-10-16T00:10:58;9.27;;;3.57;;
7501;SDS011;3792;47.740;7.606;2022-10-16T00:13:27;2.67;;;1.93;;
7501;SDS011;3792;47.740;7.606;2022-10-16T00:15:56;7.47;;;2.33;;
7501;SDS011;3792;47.740;7.606;2022-10-16T00:18:24;4.73;;;2.20;;
7501;SDS011;3792;47.740;7.606;2022-10-16T00:20:52;3.77;;;2.00;;
7501;SDS011;3792;47.740;7.606;2022-10-16T00:23:19;7.13;;;1.93;;
7501;SDS011;3792;47.740;7.606;2022-10-16T00:25:53;31.20;;;16.27;;
7501;SDS011;3792;47.740;7.606;2022-10-16T00:28:22;24.00;;;12.77;;
7501;SDS011;3792;47.740;7.606;2022-10-16T00:30:49;15.03;;;7.20;;
7501;SDS011;3792;47.740;7.606;2022-10-16T00:33:17;9.10;;;5.53;;
7501;SDS011;3792;47.740;7.606;2022-10-16T00:35:44;23.37;;;11.47;;
7501;SDS011;3792;47.740;7.606;2022-10-16T00:38:12;15.87;;;9.43;;
7501;SDS011;3792;47.740;7.606;2022-10-16T00:40:39;13.07;;;6.53;;
7501;SDS011;3792;47.740;7.606;2022-10-16T00:43:09;6.13;;;3.43;;
7501;SDS011;3792;47.740;7.606;2022-10-16T00:45:39;6.37;;;2.17;;
7501;SDS011;3792;47.740;7.606;2022-10-16T00:48:08;2.67;;;1.30;;
7501;SDS011;3792;47.740;7.606;2022-10-16T00:50:40;4.93;;;1.30;;
7501;SDS011;3792;47.740;7.606;2022-10-16T00:53:08;2.90;;;1.03;;
7501;SDS011;3792;47.740;7.606;2022-10-16T00:55:37;4.60;;;1.13;;
7501;SDS011;3792;47.740;7.606;2022-10-16T00:58:04;2.33;;;2.00;;
7501;SDS011;3792;47.740;7.606;2022-10-16T01:00:31;4.20;;;3.40;;
7501;SDS011;3792;47.740;7.606;2022-10-16T01:02:59;6.30;;;3.07;;
7501;SDS011;3792;47.740;7.606;2022-10-16T01:05:42;4.00;;;3.50;;
7501;SDS011;3792;47.740;7.606;2022-10-16T01:08:20;6.00;;;3.00;;
7501;SDS011;3792;47.740;7.606;2022-10-16T01:10:57;4.53;;;2.77;;
7501;SDS011;3792;47.740;7.606;2022-10-16T01:13:29;10.37;;;4.03;;
7501;SDS011;3792;47.740;7.606;2022-10-16T01:16:03;4.20;;;3.70;;
7501;SDS011;3792;47.740;7.606;2022-10-16T01:18:35;4.07;;;3.33;;
7501;SDS011;3792;47.740;7.606;2022-10-16T01:21:12;3.03;;;2.73;;
7501;SDS011;3792;47.740;7.606;2022-10-16T01:23:43;7.70;;;2.33;;
7501;SDS011;3792;47.740;7.606;2022-10-16T01:26:36;1.50;;;1.40;;
7501;SDS011;3792;47.740;7.606;2022-10-16T01:29:20;2.20;;;1.27;;
7501;SDS011;3792;47.740;7.606;2022-10-16T01:31:53;4.53;;;1.50;;
7501;SDS011;3792;47.740;7.606;2022-10-16T01:34:25;4.97;;;1.87;;
7501;SDS011;3792;47.740;7.606;2022-10-16T01:37:00;4.50;;;1.70;;
7501;SDS011;3792;47.740;7.606;2022-10-16T01:39:32;9.07;;;2.50;;
7501;SDS011;3792;47.740;7.606;2022-10-16T01:42:03;2.80;;;1.57;;
7501;SDS011;3792;47.740;7.606;2022-10-16T01:44:35;4.50;;;1.53;;
7501;SDS011;3792;47.740;7.606;2022-10-16T01:47:05;3.80;;;1.47;;
7501;SDS011;3792;47.740;7.606;2022-10-16T01:49:36;3.40;;;1.40;;
7501;SDS011;3792;47.740;7.606;2022-10-16T01:52:05;5.97;;;1.30;;
7501;SDS011;3792;47.740;7.606;2022-10-16T01:54:35;3.50;;;1.83;;
7501;SDS011;3792;47.740;7.606;2022-10-16T01:57:05;4.93;;;2.00;;
7501;SDS011;3792;47.740;7.606;2022-10-16T01:59:37;5.87;;;1.40;;
7501;SDS011;3792;47.740;7.606;2022-10-16T02:02:07;2.20;;;1.23;;
7501;SDS011;3792;47.740;7.606;2022-10-16T02:04:38;4.93;;;1.60;;
7501;SDS011;3792;47.740;7.606;2022-10-16T02:07:08;5.93;;;1.50;;
7501;SDS011;3792;47.740;7.606;2022-10-16T02:09:36;3.80;;;1.50;;
7501;SDS011;3792;47.740;7.606;2022-10-16T02:12:06;5.10;;;1.83;;
7501;SDS011;3792;47.740;7.606;2022-10-16T02:14:39;7.93;;;1.80;;
7501;SDS011;3792;47.740;7.606;2022-10-16T02:17:10;3.70;;;1.40;;
7501;SDS011;3792;47.740;7.606;2022-10-16T02:19:39;7.13;;;1.57;;
7501;SDS011;3792;47.740;7.606;2022-10-16T02:22:06;1.83;;;1.60;;
7501;SDS011;3792;47.740;7.606;2022-10-16T02:24:39;1.30;;;1.20;;
7501;SDS011;3792;47.740;7.606;2022-10-16T02:27:16;5.10;;;1.33;;
7501;SDS011;3792;47.740;7.606;2022-10-16T02:29:52;5.47;;;1.40;;
7501;SDS011;3792;47.740;7.606;2022-10-16T02:32:24;3.27;;;1.40;;
7501;SDS011;3792;47.740;7.606;2022-10-16T02:34:55;5.33;;;1.20;;
7501;SDS011;3792;47.740;7.606;2022-10-16T02:37:24;5.93;;;1.47;;
7501;SDS011;3792;47.740;7.606;2022-10-16T02:39:51;3.70;;;1.20;;
7501;SDS011;3792;47.740;7.606;2022-10-16T02:42:20;3.83;;;1.30;;
7501;SDS011;3792;47.740;7.606;2022-10-16T02:44:47;1.67;;;1.10;;
7501;SDS011;3792;47.740;7.606;2022-10-16T02:47:15;2.37;;;1.23;;
7501;SDS011;3792;47.740;7.606;2022-10-16T02:49:42;3.77;;;1.30;;
7501;SDS011;3792;47.740;7.606;2022-10-16T02:52:09;6.17;;;1.67;;
7501;SDS011;3792;47.740;7.606;2022-10-16T02:54:36;7.63;;;1.80;;
7501;SDS011;3792;47.740;7.606;2022-10-16T02:57:03;2.90;;;1.23;;
7501;SDS011;3792;47.740;7.606;2022-10-16T02:59:30;6.27;;;1.60;;
7501;SDS011;3792;47.740;7.606;2022-10-16T03:01:58;11.20;;;1.93;;
7501;SDS011;3792;47.740;7.606;2022-10-16T03:04:26;3.00;;;1.50;;
7501;SDS011;3792;47.740;7.606;2022-10-16T03:06:53;4.03;;;1.60;;
7501;SDS011;3792;47.740;7.606;2022-10-16T03:09:20;1.50;;;1.40;;
7501;SDS011;3792;47.740;7.606;2022-10-16T03:11:47;3.93;;;1.33;;
7501;SDS011;3792;47.740;7.606;2022-10-16T03:14:14;3.23;;;1.03;;
7501;SDS011;3792;47.740;7.606;2022-10-16T03:16:41;1.83;;;1.10;;
7501;SDS011;3792;47.740;7.606;2022-10-16T03:19:08;1.97;;;1.37;;
7501;SDS011;3792;47.740;7.606;2022-10-16T03:21:37;1.30;;;1.20;;
7501;SDS011;3792;47.740;7.606;2022-10-16T03:24:04;4.97;;;1.47;;
7501;SDS011;3792;47.740;7.606;2022-10-16T03:26:31;3.87;;;1.40;;
7501;SDS011;3792;47.740;7.606;2022-10-16T03:28:58;1.47;;;1.27;;
7501;SDS011;3792;47.740;7.606;2022-10-16T03:31:27;6.30;;;1.40;;
7501;SDS011;3792;47.740;7.606;2022-10-16T03:33:54;2.93;;;1.27;;
7501;SDS011;3792;47.740;7.606;2022-10-16T03:36:21;1.30;;;1.20;;
7501;SDS011;3792;47.740;7.606;2022-10-16T03:38:50;5.23;;;1.40;;
7501;SDS011;3792;47.740;7.606;2022-10-16T03:41:17;6.03;;;1.50;;
7501;SDS011;3792;47.740;7.606;2022-10-16T03:43:44;9.00;;;1.87;;
7501;SDS011;3792;47.740;7.606;2022-10-16T03:46:11;6.57;;;1.83;;
7501;SDS011;3792;47.740;7.606;2022-10-16T03:48:38;6.00;;;1.60;;
7501;SDS011;3792;47.740;7.606;2022-10-16T03:51:06;2.73;;;1.50;;
7501;SDS011;3792;47.740;7.606;2022-10-16T03:53:33;7.57;;;1.70;;
7501;SDS011;3792;47.740;7.606;2022-10-16T03:56:01;6.13;;;1.63;;
7501;SDS011;3792;47.740;7.606;2022-10-16T03:58:28;3.00;;;1.50;;
7501;SDS011;3792;47.740;7.606;2022-10-16T04:00:55;5.20;;;1.90;;
7501;SDS011;3792;47.740;7.606;2022-10-16T04:03:23;3.90;;;1.50;;
7501;SDS011;3792;47.740;7.606;2022-10-16T04:05:50;8.60;;;1.60;;
7501;SDS011;3792;47.740;7.606;2022-10-16T04:08:17;4.07;;;1.20;;
7501;SDS011;3792;47.740;7.606;2022-10-16T04:10:44;3.90;;;1.73;;
7501;SDS011;3792;47.740;7.606;2022-10-16T04:13:13;3.27;;;1.70;;
7501;SDS011;3792;47.740;7.606;2022-10-16T04:15:40;3.40;;;1.80;;
7501;SDS011;3792;47.740;7.606;2022-10-16T04:18:07;3.90;;;1.27;;
7501;SDS011;3792;47.740;7.606;2022-10-16T04:20:34;2.80;;;1.40;;
7501;SDS011;3792;47.740;7.606;2022-10-16T04:23:01;2.37;;;1.33;;
7501;SDS011;3792;47.740;7.606;2022-10-16T04:25:28;5.13;;;1.80;;
7501;SDS011;3792;47.740;7.606;2022-10-16T04:27:56;4.43;;;1.37;;
7501;SDS011;3792;47.740;7.606;2022-10-16T04:30:25;3.37;;;1.50;;
7501;SDS011;3792;47.740;7.606;2022-10-16T04:32:52;6.10;;;1.40;;
7501;SDS011;3792;47.740;7.606;2022-10-16T04:35:20;2.37;;;1.23;;
7501;SDS011;3792;47.740;7.606;2022-10-16T04:37:48;3.93;;;1.70;;
7501;SDS011;3792;47.740;7.606;2022-10-16T04:40:15;4.17;;;1.27;;
7501;SDS011;3792;47.740;7.606;2022-10-16T04:42:42;5.67;;;1.50;;
7501;SDS011;3792;47.740;7.606;2022-10-16T04:45:09;6.07;;;1.30;;
7501;SDS011;3792;47.740;7.606;2022-10-16T04:47:38;4.33;;;1.50;;
7501;SDS011;3792;47.740;7.606;2022-10-16T04:50:06;7.10;;;1.47;;
7501;SDS011;3792;47.740;7.606;2022-10-16T04:52:33;5.97;;;1.73;;
7501;SDS011;3792;47.740;7.606;2022-10-16T04:55:00;5.07;;;1.43;;
7501;SDS011;3792;47.740;7.606;2022-10-16T04:57:28;4.93;;;1.10;;
7501;SDS011;3792;47.740;7.606;2022-10-16T04:59:55;4.97;;;1.70;;
7501;SDS011;3792;47.740;7.606;2022-10-16T05:02:23;2.43;;;1.53;;
7501;SDS011;3792;47.740;7.606;2022-10-16T05:04:51;2.57;;;1.30;;
7501;SDS011;3792;47.740;7.606;2022-10-16T05:07:18;4.10;;;1.30;;
7501;SDS011;3792;47.740;7.606;2022-10-16T05:09:45;2.97;;;1.37;;
7501;SDS011;3792;47.740;7.606;2022-10-16T05:12:13;2.90;;;1.50;;
7501;SDS011;3792;47.740;7.606;2022-10-16T05:14:40;1.87;;;1.27;;
7501;SDS011;3792;47.740;7.606;2022-10-16T05:17:07;6.93;;;1.60;;
7501;SDS011;3792;47.740;7.606;2022-10-16T05:19:34;6.67;;;1.30;;
7501;SDS011;3792;47.740;7.606;2022-10-16T05:22:02;3.90;;;1.23;;
7501;SDS011;3792;47.740;7.606;2022-10-16T05:24:30;4.60;;;1.40;;
7501;SDS011;3792;47.740;7.606;2022-10-16T05:26:57;5.23;;;1.90;;
7501;SDS011;3792;47.740;7.606;2022-10-16T05:29:24;7.30;;;3.23;;
7501;SDS011;3792;47.740;7.606;2022-10-16T05:31:51;3.73;;;2.50;;
7501;SDS011;3792;47.740;7.606;2022-10-16T05:34:18;4.23;;;2.30;;
7501;SDS011;3792;47.740;7.606;2022-10-16T05:36:46;7.50;;;2.20;;
7501;SDS011;3792;47.740;7.606;2022-10-16T05:39:15;7.53;;;2.20;;
7501;SDS011;3792;47.740;7.606;2022-10-16T05:41:42;3.10;;;2.27;;
7501;SDS011;3792;47.740;7.606;2022-10-16T05:44:09;6.27;;;2.40;;
7501;SDS011;3792;47.740;7.606;2022-10-16T05:46:37;2.97;;;2.10;;
7501;SDS011;3792;47.740;7.606;2022-10-16T05:49:04;7.07;;;2.40;;
7501;SDS011;3792;47.740;7.606;2022-10-16T05:51:31;3.47;;;1.90;;
7501;SDS011;3792;47.740;7.606;2022-10-16T05:53:58;4.50;;;2.20;;
7501;SDS011;3792;47.740;7.606;2022-10-16T05:56:26;7.73;;;2.80;;
7501;SDS011;3792;47.740;7.606;2022-10-16T05:58:54;3.93;;;2.33;;
7501;SDS011;3792;47.740;7.606;2022-10-16T06:01:21;5.20;;;2.47;;
7501;SDS011;3792;47.740;7.606;2022-10-16T06:03:49;3.77;;;1.90;;
7501;SDS011;3792;47.740;7.606;2022-10-16T06:06:17;3.57;;;2.23;;
7501;SDS011;3792;47.740;7.606;2022-10-16T06:08:46;2.63;;;2.33;;
7501;SDS011;3792;47.740;7.606;2022-10-16T06:11:14;3.07;;;2.03;;
7501;SDS011;3792;47.740;7.606;2022-10-16T06:13:48;8.97;;;1.80;;
7501;SDS011;3792;47.740;7.606;2022-10-16T06:16:16;2.93;;;1.60;;
7501;SDS011;3792;47.740;7.606;2022-10-16T06:18:43;11.60;;;5.97;;
7501;SDS011;3792;47.740;7.606;2022-10-16T06:21:11;9.10;;;5.87;;
7501;SDS011;3792;47.740;7.606;2022-10-16T06:23:40;6.17;;;4.10;;
7501;SDS011;3792;47.740;7.606;2022-10-16T06:26:08;10.17;;;3.00;;
7501;SDS011;3792;47.740;7.606;2022-10-16T06:28:37;5.33;;;2.73;;
7501;SDS011;3792;47.740;7.606;2022-10-16T06:31:07;5.27;;;4.00;;
7501;SDS011;3792;47.740;7.606;2022-10-16T06:33:35;12.83;;;4.23;;
7501;SDS011;3792;47.740;7.606;2022-10-16T06:36:03;7.80;;;3.90;;
7501;SDS011;3792;47.740;7.606;2022-10-16T06:38:33;6.97;;;4.03;;
7501;SDS011;3792;47.740;7.606;2022-10-16T06:41:00;6.60;;;3.90;;
7501;SDS011;3792;47.740;7.606;2022-10-16T06:43:28;5.40;;;3.50;;
7501;SDS011;3792;47.740;7.606;2022-10-16T06:45:57;5.13;;;4.53;;
7501;SDS011;3792;47.740;7.606;2022-10-16T06:48:28;10.23;;;4.90;;
7501;SDS011;3792;47.740;7.606;2022-10-16T06:50:56;6.90;;;3.63;;
7501;SDS011;3792;47.740;7.606;2022-10-16T06:53:24;4.43;;;2.40;;
7501;SDS011;3792;47.740;7.606;2022-10-16T06:55:51;4.23;;;2.50;;
7501;SDS011;3792;47.740;7.606;2022-10-16T06:58:18;3.73;;;2.20;;
7501;SDS011;3792;47.740;7.606;2022-10-16T07:00:46;1.97;;;1.60;;
7501;SDS011;3792;47.740;7.606;2022-10-16T07:03:14;2.63;;;1.70;;
7501;SDS011;3792;47.740;7.606;2022-10-16T07:05:43;5.33;;;1.43;;
7501;SDS011;3792;47.740;7.606;2022-10-16T07:08:10;6.43;;;1.93;;
7501;SDS011;3792;47.740;7.606;2022-10-16T07:10:37;4.03;;;2.20;;
7501;SDS011;3792;47.740;7.606;2022-10-16T07:13:04;7.17;;;1.87;;
7501;SDS011;3792;47.740;7.606;2022-10-16T07:15:32;2.20;;;2.00;;
7501;SDS011;3792;47.740;7.606;2022-10-16T07:18:00;2.70;;;2.10;;
7501;SDS011;3792;47.740;7.606;2022-10-16T07:20:27;1.77;;;1.67;;
7501;SDS011;3792;47.740;7.606;2022-10-16T07:22:55;3.00;;;1.20;;
7501;SDS011;3792;47.740;7.606;2022-10-16T07:25:22;1.73;;;1.20;;
7501;SDS011;3792;47.740;7.606;2022-10-16T07:27:49;3.27;;;1.33;;
7501;SDS011;3792;47.740;7.606;2022-10-16T07:30:16;2.23;;;1.40;;
7501;SDS011;3792;47.740;7.606;2022-10-16T07:32:44;3.03;;;1.30;;
7501;SDS011;3792;47.740;7.606;2022-10-16T07:35:11;1.40;;;1.30;;
7501;SDS011;3792;47.740;7.606;2022-10-16T07:37:38;3.90;;;1.20;;
7501;SDS011;3792;47.740;7.606;2022-10-16T07:40:08;4.37;;;1.37;;
7501;SDS011;3792;47.740;7.606;2022-10-16T07:42:35;3.30;;;1.47;;
7501;SDS011;3792;47.740;7.606;2022-10-16T07:45:03;2.53;;;1.40;;
7501;SDS011;3792;47.740;7.606;2022-10-16T07:47:30;1.43;;;1.30;;
7501;SDS011;3792;47.740;7.606;2022-10-16T07:49:58;4.10;;;1.43;;
7501;SDS011;3792;47.740;7.606;2022-10-16T07:52:25;4.57;;;1.20;;
7501;SDS011;3792;47.740;7.606;2022-10-16T07:54:52;4.90;;;1.40;;
7501;SDS011;3792;47.740;7.606;2022-10-16T07:57:20;1.87;;;1.27;;
7501;SDS011;3792;47.740;7.606;2022-10-16T07:59:48;3.60;;;1.07;;
7501;SDS011;3792;47.740;7.606;2022-10-16T08:02:15;2.73;;;1.43;;
7501;SDS011;3792;47.740;7.606;2022-10-16T08:04:42;4.20;;;1.20;;
7501;SDS011;3792;47.740;7.606;2022-10-16T08:07:09;5.93;;;1.60;;
7501;SDS011;3792;47.740;7.606;2022-10-16T08:09:36;1.73;;;1.50;;
7501;SDS011;3792;47.740;7.606;2022-10-16T08:12:03;4.57;;;1.40;;
7501;SDS011;3792;47.740;7.606;2022-10-16T08:14:32;5.93;;;1.43;;
7501;SDS011;3792;47.740;7.606;2022-10-16T08:16:59;7.40;;;1.20;;
7501;SDS011;3792;47.740;7.606;2022-10-16T08:19:27;5.63;;;1.30;;
7501;SDS011;3792;47.740;7.606;2022-10-16T08:21:55;4.60;;;1.20;;
7501;SDS011;3792;47.740;7.606;2022-10-16T08:24:22;3.63;;;1.40;;
7501;SDS011;3792;47.740;7.606;2022-10-16T08:26:49;1.40;;;1.30;;
7501;SDS011;3792;47.740;7.606;2022-10-16T08:29:16;2.30;;;1.47;;
7501;SDS011;3792;47.740;7.606;2022-10-16T08:31:44;6.87;;;1.37;;
7501;SDS011;3792;47.740;7.606;2022-10-16T08:34:12;1.30;;;1.20;;
7501;SDS011;3792;47.740;7.606;2022-10-16T08:36:39;2.30;;;1.30;;
7501;SDS011;3792;47.740;7.606;2022-10-16T08:39:06;3.97;;;1.47;;
7501;SDS011;3792;47.740;7.606;2022-10-16T08:41:39;3.97;;;1.17;;
7501;SDS011;3792;47.740;7.606;2022-10-16T08:44:29;3.17;;;1.37;;
7501;SDS011;3792;47.740;7.606;2022-10-16T08:47:19;2.63;;;1.10;;
7501;SDS011;3792;47.740;7.606;2022-10-16T08:49:53;1.43;;;1.30;;
7501;SDS011;3792;47.740;7.606;2022-10-16T08:52:24;1.37;;;1.23;;
7501;SDS011;3792;47.740;7.606;2022-10-16T08:54:56;1.70;;;1.50;;
7501;SDS011;3792;47.740;7.606;2022-10-16T08:57:24;2.27;;;1.10;;
7501;SDS011;3792;47.740;7.606;2022-10-16T08:59:52;1.53;;;1.20;;
7501;SDS011;3792;47.740;7.606;2022-10-16T09:02:24;3.40;;;1.60;;
7501;SDS011;3792;47.740;7.606;2022-10-16T09:04:59;1.80;;;1.40;;
7501;SDS011;3792;47.740;7.606;2022-10-16T09:07:38;1.40;;;1.30;;
7501;SDS011;3792;47.740;7.606;2022-10-16T09:10:15;2.63;;;1.10;;
7501;SDS011;3792;47.740;7.606;2022-10-16T09:12:54;2.93;;;1.30;;
7501;SDS011;3792;47.740;7.606;2022-10-16T09:15:29;2.27;;;1.30;;
7501;SDS011;3792;47.740;7.606;2022-10-16T09:18:05;2.63;;;0.93;;
7501;SDS011;3792;47.740;7.606;2022-10-16T09:20:42;6.03;;;1.40;;
7501;SDS011;3792;47.740;7.606;2022-10-16T09:23:14;1.97;;;1.10;;
7501;SDS011;3792;47.740;7.606;2022-10-16T09:25:44;2.23;;;1.17;;
7501;SDS011;3792;47.740;7.606;2022-10-16T09:28:14;3.10;;;1.20;;
7501;SDS011;3792;47.740;7.606;2022-10-16T09:30:42;2.77;;;1.13;;
7501;SDS011;3792;47.740;7.606;2022-10-16T09:33:11;3.67;;;1.00;;
7501;SDS011;3792;47.740;7.606;2022-10-16T09:35:40;1.67;;;1.10;;
7501;SDS011;3792;47.740;7.606;2022-10-16T09:38:20;1.90;;;1.10;;
7501;SDS011;3792;47.740;7.606;2022-10-16T09:40:49;2.33;;;1.07;;
7501;SDS011;3792;47.740;7.606;2022-10-16T09:43:20;2.77;;;1.10;;
7501;SDS011;3792;47.740;7.606;2022-10-16T09:45:53;4.40;;;0.97;;
7501;SDS011;3792;47.740;7.606;2022-10-16T09:48:23;4.77;;;1.30;;
7501;SDS011;3792;47.740;7.606;2022-10-16T09:50:57;4.53;;;1.50;;
7501;SDS011;3792;47.740;7.606;2022-10-16T09:53:37;2.23;;;1.10;;
7501;SDS011;3792;47.740;7.606;2022-10-16T09:56:06;2.27;;;1.40;;
7501;SDS011;3792;47.740;7.606;2022-10-16T09:58:34;2.07;;;1.30;;
7501;SDS011;3792;47.740;7.606;2022-10-16T10:01:02;4.40;;;1.43;;
7501;SDS011;3792;47.740;7.606;2022-10-16T10:03:39;3.13;;;1.30;;
7501;SDS011;3792;47.740;7.606;2022-10-16T10:06:15;1.60;;;1.50;;
7501;SDS011;3792;47.740;7.606;2022-10-16T10:08:58;1.27;;;1.17;;
7501;SDS011;3792;47.740;7.606;2022-10-16T10:11:38;3.23;;;1.23;;
7501;SDS011;3792;47.740;7.606;2022-10-16T10:14:06;5.53;;;1.03;;
7501;SDS011;3792;47.740;7.606;2022-10-16T10:16:50;5.67;;;1.33;;
7501;SDS011;3792;47.740;7.606;2022-10-16T10:19:21;1.73;;;1.07;;
7501;SDS011;3792;47.740;7.606;2022-10-16T10:21:49;5.73;;;1.40;;
7501;SDS011;3792;47.740;7.606;2022-10-16T10:24:18;1.30;;;1.20;;
7501;SDS011;3792;47.740;7.606;2022-10-16T10:26:48;3.70;;;1.30;;
7501;SDS011;3792;47.740;7.606;2022-10-16T10:29:22;2.57;;;1.30;;
7501;SDS011;3792;47.740;7.606;2022-10-16T10:32:00;2.87;;;1.37;;
7501;SDS011;3792;47.740;7.606;2022-10-16T10:34:45;2.67;;;1.27;;
7501;SDS011;3792;47.740;7.606;2022-10-16T10:37:30;3.40;;;1.40;;
7501;SDS011;3792;47.740;7.606;2022-10-16T10:40:08;1.20;;;1.10;;
7501;SDS011;3792;47.740;7.606;2022-10-16T10:42:44;1.13;;;1.00;;
7501;SDS011;3792;47.740;7.606;2022-10-16T10:45:19;2.67;;;1.20;;
7501;SDS011;3792;47.740;7.606;2022-10-16T10:48:05;2.13;;;1.30;;
7501;SDS011;3792;47.740;7.606;2022-10-16T10:50:43;6.80;;;1.30;;
7501;SDS011;3792;47.740;7.606;2022-10-16T10:53:21;7.87;;;1.30;;
7501;SDS011;3792;47.740;7.606;2022-10-16T10:55:59;2.80;;;1.20;;
7501;SDS011;3792;47.740;7.606;2022-10-16T11:01:30;2.87;;;1.03;;
7501;SDS011;3792;47.740;7.606;2022-10-16T11:07:02;2.63;;;1.20;;
7501;SDS011;3792;47.740;7.606;2022-10-16T11:12:14;3.80;;;1.20;;
7501;SDS011;3792;47.740;7.606;2022-10-16T11:14:46;2.33;;;1.10;;
7501;SDS011;3792;47.740;7.606;2022-10-16T11:17:19;4.13;;;1.20;;
7501;SDS011;3792;47.740;7.606;2022-10-16T11:19:52;1.60;;;0.80;;
7501;SDS011;3792;47.740;7.606;2022-10-16T11:22:26;1.40;;;1.10;;
7501;SDS011;3792;47.740;7.606;2022-10-16T11:25:00;2.80;;;0.90;;
7501;SDS011;3792;47.740;7.606;2022-10-16T11:27:35;5.70;;;1.10;;
7501;SDS011;3792;47.740;7.606;2022-10-16T11:30:08;2.27;;;1.27;;
7501;SDS011;3792;47.740;7.606;2022-10-16T11:32:47;1.90;;;1.30;;
7501;SDS011;3792;47.740;7.606;2022-10-16T11:35:22;1.50;;;1.40;;
7501;SDS011;3792;47.740;7.606;2022-10-16T11:37:53;4.50;;;1.20;;
7501;SDS011;3792;47.740;7.606;2022-10-16T11:40:24;2.60;;;1.30;;
7501;SDS011;3792;47.740;7.606;2022-10-16T11:42:57;1.73;;;1.50;;
7501;SDS011;3792;47.740;7.606;2022-10-16T11:45:30;1.37;;;1.27;;
7501;SDS011;3792;47.740;7.606;2022-10-16T11:48:02;3.43;;;1.20;;
7501;SDS011;3792;47.740;7.606;2022-10-16T11:50:37;3.10;;;1.50;;
7501;SDS011;3792;47.740;7.606;2022-10-16T11:53:13;3.17;;;1.40;;
7501;SDS011;3792;47.740;7.606;2022-10-16T11:55:48;2.53;;;1.07;;
7501;SDS011;3792;47.740;7.606;2022-10-16T11:58:21;2.93;;;1.30;;
7501;SDS011;3792;47.740;7.606;2022-10-16T12:00:55;6.30;;;1.40;;
7501;SDS011;3792;47.740;7.606;2022-10-16T12:03:27;1.60;;;1.30;;
7501;SDS011;3792;47.740;7.606;2022-10-16T12:06:04;1.77;;;1.20;;
7501;SDS011;3792;47.740;7.606;2022-10-16T12:08:53;3.57;;;1.30;;
7501;SDS011;3792;47.740;7.606;2022-10-16T12:11:23;4.07;;;1.30;;
7501;SDS011;3792;47.740;7.606;2022-10-16T12:14:05;1.30;;;1.10;;
7501;SDS011;3792;47.740;7.606;2022-10-16T12:16:50;2.93;;;1.30;;
7501;SDS011;3792;47.740;7.606;2022-10-16T12:19:19;2.67;;;1.20;;
7501;SDS011;3792;47.740;7.606;2022-10-16T12:21:54;4.27;;;1.57;;
7501;SDS011;3792;47.740;7.606;2022-10-16T12:27:20;4.67;;;1.20;;
7501;SDS011;3792;47.740;7.606;2022-10-16T12:29:54;1.30;;;1.10;;
7501;SDS011;3792;47.740;7.606;2022-10-16T12:32:25;2.20;;;1.20;;
7501;SDS011;3792;47.740;7.606;2022-10-16T12:34:55;1.17;;;1.07;;
7501;SDS011;3792;47.740;7.606;2022-10-16T12:37:24;4.93;;;1.10;;
7501;SDS011;3792;47.740;7.606;2022-10-16T12:39:54;1.30;;;1.20;;
7501;SDS011;3792;47.740;7.606;2022-10-16T12:42:30;5.13;;;1.20;;
7501;SDS011;3792;47.740;7.606;2022-10-16T12:45:00;1.50;;;1.20;;
7501;SDS011;3792;47.740;7.606;2022-10-16T12:47:37;4.17;;;1.70;;
7501;SDS011;3792;47.740;7.606;2022-10-16T12:50:24;2.03;;;1.10;;
7501;SDS011;3792;47.740;7.606;2022-10-16T12:52:53;2.10;;;1.60;;
7501;SDS011;3792;47.740;7.606;2022-10-16T12:55:22;3.53;;;2.30;;
7501;SDS011;3792;47.740;7.606;2022-10-16T12:58:02;1.53;;;1.30;;
7501;SDS011;3792;47.740;7.606;2022-10-16T13:00:36;1.83;;;1.20;;
7501;SDS011;3792;47.740;7.606;2022-10-16T13:03:36;3.03;;;1.20;;
7501;SDS011;3792;47.740;7.606;2022-10-16T13:06:26;3.87;;;1.23;;
7501;SDS011;3792;47.740;7.606;2022-10-16T13:12:03;4.20;;;1.40;;
7501;SDS011;3792;47.740;7.606;2022-10-16T13:14:42;1.10;;;1.07;;
7501;SDS011;3792;47.740;7.606;2022-10-16T13:17:30;4.73;;;1.20;;
7501;SDS011;3792;47.740;7.606;2022-10-16T13:20:06;2.10;;;1.10;;
7501;SDS011;3792;47.740;7.606;2022-10-16T13:22:45;3.10;;;1.23;;
7501;SDS011;3792;47.740;7.606;2022-10-16T13:25:26;2.10;;;1.00;;
7501;SDS011;3792;47.740;7.606;2022-10-16T13:28:01;3.13;;;1.00;;
7501;SDS011;3792;47.740;7.606;2022-10-16T13:30:30;1.03;;;1.03;;
7501;SDS011;3792;47.740;7.606;2022-10-16T13:33:03;2.47;;;1.17;;
7501;SDS011;3792;47.740;7.606;2022-10-16T13:35:35;3.00;;;1.10;;
7501;SDS011;3792;47.740;7.606;2022-10-16T13:38:03;1.70;;;1.27;;
7501;SDS011;3792;47.740;7.606;2022-10-16T13:40:32;3.03;;;1.10;;
7501;SDS011;3792;47.740;7.606;2022-10-16T13:43:01;2.27;;;1.20;;
7501;SDS011;3792;47.740;7.606;2022-10-16T13:45:28;2.27;;;1.17;;
7501;SDS011;3792;47.740;7.606;2022-10-16T13:48:02;1.57;;;0.90;;
7501;SDS011;3792;47.740;7.606;2022-10-16T13:50:30;2.50;;;1.00;;
7501;SDS011;3792;47.740;7.606;2022-10-16T13:53:04;1.77;;;1.00;;
7501;SDS011;3792;47.740;7.606;2022-10-16T13:55:32;2.00;;;1.40;;
7501;SDS011;3792;47.740;7.606;2022-10-16T13:58:12;4.57;;;1.40;;
7501;SDS011;3792;47.740;7.606;2022-10-16T14:00:40;4.00;;;1.57;;
7501;SDS011;3792;47.740;7.606;2022-10-16T14:03:19;2.37;;;1.40;;
7501;SDS011;3792;47.740;7.606;2022-10-16T14:05:49;1.73;;;1.20;;
7501;SDS011;3792;47.740;7.606;2022-10-16T14:08:18;1.20;;;1.03;;
7501;SDS011;3792;47.740;7.606;2022-10-16T14:10:47;4.40;;;2.10;;
7501;SDS011;3792;47.740;7.606;2022-10-16T14:13:17;3.30;;;1.30;;
7501;SDS011;3792;47.740;7.606;2022-10-16T14:15:47;3.30;;;2.00;;
7501;SDS011;3792;47.740;7.606;2022-10-16T14:18:18;6.13;;;1.33;;
7501;SDS011;3792;47.740;7.606;2022-10-16T14:20:47;4.93;;;1.10;;
7501;SDS011;3792;47.740;7.606;2022-10-16T14:23:22;3.50;;;1.47;;
7501;SDS011;3792;47.740;7.606;2022-10-16T14:26:05;1.93;;;1.17;;
7501;SDS011;3792;47.740;7.606;2022-10-16T14:28:42;4.93;;;2.00;;
7501;SDS011;3792;47.740;7.606;2022-10-16T14:31:27;4.57;;;1.50;;
7501;SDS011;3792;47.740;7.606;2022-10-16T14:33:55;2.40;;;1.20;;
7501;SDS011;3792;47.740;7.606;2022-10-16T14:36:23;7.10;;;6.43;;
7501;SDS011;3792;47.740;7.606;2022-10-16T14:38:55;10.57;;;3.20;;
7501;SDS011;3792;47.740;7.606;2022-10-16T14:41:26;3.33;;;1.23;;
7501;SDS011;3792;47.740;7.606;2022-10-16T14:43:57;1.60;;;1.13;;
7501;SDS011;3792;47.740;7.606;2022-10-16T14:46:31;1.87;;;1.10;;
7501;SDS011;3792;47.740;7.606;2022-10-16T14:49:02;3.67;;;1.57;;
7501;SDS011;3792;47.740;7.606;2022-10-16T14:51:40;3.47;;;1.40;;
7501;SDS011;3792;47.740;7.606;2022-10-16T14:54:09;1.67;;;1.17;;
7501;SDS011;3792;47.740;7.606;2022-10-16T14:56:42;1.40;;;1.30;;
7501;SDS011;3792;47.740;7.606;2022-10-16T14:59:14;8.00;;;3.03;;
7501;SDS011;3792;47.740;7.606;2022-10-16T15:01:44;30.90;;;17.47;;
7501;SDS011;3792;47.740;7.606;2022-10-16T15:04:12;24.60;;;16.13;;
7501;SDS011;3792;47.740;7.606;2022-10-16T15:06:41;11.30;;;5.63;;
7501;SDS011;3792;47.740;7.606;2022-10-16T15:09:09;14.37;;;11.53;;
7501;SDS011;3792;47.740;7.606;2022-10-16T15:11:36;3.17;;;1.50;;
7501;SDS011;3792;47.740;7.606;2022-10-16T15:14:03;3.47;;;1.30;;
7501;SDS011;3792;47.740;7.606;2022-10-16T15:16:32;7.80;;;1.67;;
7501;SDS011;3792;47.740;7.606;2022-10-16T15:18:59;7.07;;;1.43;;
7501;SDS011;3792;47.740;7.606;2022-10-16T15:21:27;2.60;;;1.60;;
7501;SDS011;3792;47.740;7.606;2022-10-16T15:23:56;4.87;;;1.70;;
7501;SDS011;3792;47.740;7.606;2022-10-16T15:26:24;7.27;;;1.77;;
7501;SDS011;3792;47.740;7.606;2022-10-16T15:28:52;4.10;;;1.63;;
7501;SDS011;3792;47.740;7.606;2022-10-16T15:31:20;6.87;;;1.67;;
7501;SDS011;3792;47.740;7.606;2022-10-16T15:33:50;6.33;;;1.43;;
7501;SDS011;3792;47.740;7.606;2022-10-16T15:36:24;6.80;;;1.90;;
7501;SDS011;3792;47.740;7.606;2022-10-16T15:38:52;4.03;;;1.60;;
7501;SDS011;3792;47.740;7.606;2022-10-16T15:41:20;2.83;;;1.20;;
7501;SDS011;3792;47.740;7.606;2022-10-16T15:43:47;4.70;;;1.57;;
7501;SDS011;3792;47.740;7.606;2022-10-16T15:46:17;4.33;;;1.47;;
7501;SDS011;3792;47.740;7.606;2022-10-16T15:48:46;3.10;;;1.60;;
7501;SDS011;3792;47.740;7.606;2022-10-16T15:51:15;5.83;;;1.23;;